createdAt,value
2022-08-19T00:01:37.939Z,18.60
2022-08-19T00:04:10.138Z,19.02
2022-08-19T00:06:39.540Z,18.02
2022-08-19T00:09:09.790Z,18.55
2022-08-19T00:11:38.436Z,18.02
2022-08-19T00:14:10.736Z,18.35
2022-08-19T00:16:39.604Z,19.45
2022-08-19T00:19:06.751Z,19.38
2022-08-19T00:21:33.287Z,19.13
2022-08-19T00:24:00.491Z,19.58
2022-08-19T00:26:29.274Z,19.02
2022-08-19T00:28:56.380Z,20.02
2022-08-19T00:31:23.288Z,18.70
2022-08-19T00:33:52.343Z,19.48
2022-08-19T00:36:18.836Z,19.88
2022-08-19T00:38:45.511Z,19.92
2022-08-19T00:41:18.943Z,20.38
2022-08-19T00:44:07.736Z,19.65
2022-08-19T00:46:37.554Z,20.10
2022-08-19T00:49:10.714Z,20.73
2022-08-19T00:51:37.726Z,20.92
2022-08-19T00:54:04.672Z,19.02
2022-08-19T00:56:32.144Z,21.95
2022-08-19T00:59:00.391Z,20.48
2022-08-19T01:01:27.297Z,22.35
2022-08-19T01:03:56.784Z,21.88
2022-08-19T01:06:25.213Z,21.45
2022-08-19T01:08:51.992Z,21.75
2022-08-19T01:11:18.615Z,23.95
2022-08-19T01:13:49.783Z,23.42
2022-08-19T01:16:18.587Z,24.70
2022-08-19T01:18:45.367Z,24.30
2022-08-19T01:21:22.813Z,23.00
2022-08-19T01:23:49.479Z,23.55
2022-08-19T01:26:20.048Z,23.25
2022-08-19T01:28:48.675Z,22.63
2022-08-19T01:34:01.547Z,20.55
2022-08-19T01:36:32.606Z,20.58
2022-08-19T01:39:00.709Z,22.02
2022-08-19T01:41:27.490Z,24.35
2022-08-19T01:44:13.886Z,24.58
2022-08-19T01:46:41.835Z,24.40
2022-08-19T01:49:08.934Z,24.27
2022-08-19T01:51:39.929Z,23.92
2022-08-19T01:54:07.823Z,24.83
2022-08-19T01:56:34.333Z,26.42
2022-08-19T01:59:04.409Z,26.67
2022-08-19T02:01:35.722Z,24.83
2022-08-19T02:04:03.061Z,25.52
2022-08-19T02:06:29.938Z,25.08
2022-08-19T02:08:57.336Z,25.17
2022-08-19T02:11:32.196Z,25.45
2022-08-19T02:13:59.917Z,25.45
2022-08-19T02:16:26.505Z,25.85
2022-08-19T02:18:53.009Z,26.02
2022-08-19T02:21:22.591Z,25.98
2022-08-19T02:23:50.097Z,27.13
2022-08-19T02:26:17.758Z,25.67
2022-08-19T02:28:44.432Z,24.65
2022-08-19T02:31:13.008Z,26.25
2022-08-19T02:33:40.001Z,24.95
2022-08-19T02:36:07.886Z,26.83
2022-08-19T02:38:34.440Z,25.52
2022-08-19T02:41:04.316Z,24.75
2022-08-19T02:43:33.781Z,26.45
2022-08-19T02:46:01.382Z,26.95
2022-08-19T02:48:27.871Z,27.20
2022-08-19T02:50:56.363Z,27.10
2022-08-19T02:53:25.686Z,25.58
2022-08-19T02:55:52.916Z,24.80
2022-08-19T02:58:20.779Z,25.88
2022-08-19T03:00:50.387Z,23.92
2022-08-19T03:03:17.761Z,26.58
2022-08-19T03:05:47.118Z,25.70
2022-08-19T03:08:22.892Z,25.13
2022-08-19T03:10:49.477Z,24.83
2022-08-19T03:13:18.526Z,24.67
2022-08-19T03:15:48.304Z,26.48
2022-08-19T03:18:15.618Z,26.70
2022-08-19T03:20:50.475Z,24.42
2022-08-19T03:23:17.711Z,26.85
2022-08-19T03:25:47.556Z,25.02
2022-08-19T03:28:29.371Z,23.73
2022-08-19T03:31:45.110Z,26.08
2022-08-19T03:33:56.125Z,24.80
2022-08-19T03:36:26.782Z,25.02
2022-08-19T03:39:00.129Z,26.15
2022-08-19T03:41:34.375Z,23.85
2022-08-19T03:44:18.019Z,26.90
2022-08-19T03:46:46.511Z,26.27
2022-08-19T03:49:14.372Z,27.38
2022-08-19T03:51:42.588Z,26.67
2022-08-19T03:54:11.444Z,26.50
2022-08-19T03:56:39.432Z,25.17
2022-08-19T03:59:08.407Z,26.58
2022-08-19T04:01:36.240Z,25.85
2022-08-19T04:04:04.859Z,26.90
2022-08-19T04:06:39.655Z,26.45
2022-08-19T04:09:09.551Z,27.95
2022-08-19T04:11:44.570Z,26.88
2022-08-19T04:14:14.947Z,27.08
2022-08-19T04:16:42.097Z,26.20
2022-08-19T04:19:08.820Z,26.00
2022-08-19T04:21:35.778Z,27.42
2022-08-19T04:24:03.832Z,28.05
2022-08-19T04:26:34.865Z,26.95
2022-08-19T04:29:09.183Z,25.73
2022-08-19T04:31:38.462Z,26.52
2022-08-19T04:34:07.603Z,26.92
2022-08-19T04:36:36.903Z,27.00
2022-08-19T04:39:08.449Z,27.52
2022-08-19T04:44:20.413Z,27.05
2022-08-19T04:46:51.010Z,26.55
2022-08-19T04:49:23.140Z,26.95
2022-08-19T04:51:52.186Z,27.00
2022-08-19T04:54:37.080Z,27.55
2022-08-19T04:57:07.438Z,27.67
2022-08-19T04:59:34.453Z,28.17
2022-08-19T05:02:00.990Z,27.95
2022-08-19T05:04:29.037Z,28.88
2022-08-19T05:07:00.070Z,30.75
2022-08-19T05:09:55.534Z,31.13
2022-08-19T05:12:16.422Z,32.90
2022-08-19T05:14:42.911Z,32.85
2022-08-19T05:17:26.529Z,32.45
2022-08-19T05:20:26.501Z,33.97
2022-08-19T05:22:53.339Z,35.22
2022-08-19T05:25:21.423Z,37.78
2022-08-19T05:27:48.595Z,40.40
2022-08-19T05:30:15.887Z,42.08
2022-08-19T05:32:42.625Z,43.15
2022-08-19T05:35:10.404Z,42.80
2022-08-19T05:37:37.050Z,46.03
2022-08-19T05:40:04.356Z,45.30
2022-08-19T05:42:31.465Z,43.13
2022-08-19T05:44:59.026Z,44.88
2022-08-19T05:47:25.618Z,43.97
2022-08-19T05:49:52.417Z,46.95
2022-08-19T05:52:25.751Z,46.55
2022-08-19T05:54:55.752Z,47.85
2022-08-19T05:57:22.864Z,49.95
2022-08-19T05:59:53.029Z,46.30
2022-08-19T06:02:28.906Z,48.55
2022-08-19T06:04:55.451Z,53.90
2022-08-19T06:07:22.019Z,51.50
2022-08-19T06:10:00.468Z,51.42
2022-08-19T06:12:35.543Z,52.72
2022-08-19T06:15:07.970Z,55.35
2022-08-19T06:17:35.980Z,54.03
2022-08-19T06:20:05.630Z,57.42
2022-08-19T06:22:32.163Z,54.60
2022-08-19T06:24:58.785Z,52.55
2022-08-19T06:27:25.430Z,53.60
2022-08-19T06:29:51.948Z,54.28
2022-08-19T06:32:19.894Z,56.22
2022-08-19T06:34:46.574Z,51.45
2022-08-19T06:37:13.151Z,53.20
2022-08-19T06:39:41.982Z,54.88
2022-08-19T06:42:12.205Z,57.00
2022-08-19T06:44:43.269Z,56.63
2022-08-19T06:47:14.556Z,58.78
2022-08-19T06:49:49.996Z,58.00
2022-08-19T06:52:16.878Z,55.53
2022-08-19T06:54:53.708Z,60.25
2022-08-19T06:57:25.119Z,58.85
2022-08-19T06:59:52.188Z,57.78
2022-08-19T07:02:19.426Z,56.40
2022-08-19T07:04:46.844Z,56.92
2022-08-19T07:07:20.317Z,61.00
2022-08-19T07:10:00.042Z,58.42
2022-08-19T07:12:32.263Z,61.08
2022-08-19T07:14:59.060Z,65.40
2022-08-19T07:17:26.820Z,67.13
2022-08-19T07:19:54.146Z,69.40
2022-08-19T07:22:23.762Z,72.78
2022-08-19T07:24:52.135Z,69.65
2022-08-19T07:27:22.523Z,69.88
2022-08-19T07:29:57.314Z,67.88
2022-08-19T07:32:28.181Z,64.88
2022-08-19T07:34:56.361Z,63.35
2022-08-19T07:37:24.255Z,62.75
2022-08-19T07:39:50.840Z,61.05
2022-08-19T07:42:18.911Z,63.00
2022-08-19T07:44:50.330Z,64.78
2022-08-19T07:47:49.170Z,61.15
2022-08-19T07:50:07.755Z,61.10
2022-08-19T07:52:36.767Z,64.38
2022-08-19T07:55:05.268Z,63.88
2022-08-19T07:57:31.899Z,60.33
2022-08-19T07:59:58.478Z,61.35
2022-08-19T08:02:25.044Z,55.33
2022-08-19T08:05:10.482Z,56.17
2022-08-19T08:07:55.764Z,57.28
2022-08-19T08:10:24.225Z,59.70
2022-08-19T08:13:09.844Z,55.80
2022-08-19T08:15:42.582Z,63.97
2022-08-19T08:18:11.509Z,58.60
2022-08-19T08:20:39.171Z,66.03
2022-08-19T08:23:25.692Z,61.80
2022-08-19T08:25:57.933Z,62.42
2022-08-19T08:28:26.164Z,60.28
2022-08-19T08:30:56.529Z,64.07
2022-08-19T08:33:32.671Z,60.25
2022-08-19T08:35:59.952Z,60.75
2022-08-19T08:38:26.546Z,56.58
2022-08-19T08:41:07.547Z,53.25
2022-08-19T08:43:42.877Z,53.47
2022-08-19T08:46:16.238Z,48.55
2022-08-19T08:49:09.802Z,50.47
2022-08-19T08:51:59.793Z,47.88
2022-08-19T08:54:32.902Z,48.60
2022-08-19T08:57:03.281Z,47.47
2022-08-19T08:59:34.507Z,48.70
2022-08-19T09:02:01.412Z,51.72
2022-08-19T09:04:28.756Z,47.60
2022-08-19T09:07:35.396Z,52.42
2022-08-19T09:10:22.944Z,48.88
2022-08-19T09:13:16.799Z,55.20
2022-08-19T09:15:52.157Z,51.92
2022-08-19T09:18:19.643Z,55.72
2022-08-19T09:20:50.288Z,58.65
2022-08-19T09:23:16.876Z,58.78
2022-08-19T09:25:43.426Z,61.40
2022-08-19T09:28:15.166Z,59.90
2022-08-19T09:30:49.347Z,58.97
2022-08-19T09:33:17.025Z,58.50
2022-08-19T09:35:49.528Z,57.25
2022-08-19T09:38:19.571Z,56.75
2022-08-19T09:40:46.102Z,59.15
2022-08-19T09:43:13.469Z,60.25
2022-08-19T09:45:40.869Z,53.47
2022-08-19T09:48:07.446Z,62.67
2022-08-19T09:50:39.386Z,58.15
2022-08-19T09:53:19.357Z,58.15
2022-08-19T09:55:45.975Z,60.50
2022-08-19T09:58:12.877Z,57.75
2022-08-19T10:00:39.483Z,58.80
2022-08-19T10:03:05.988Z,56.58
2022-08-19T10:05:54.611Z,60.88
2022-08-19T10:08:29.019Z,55.50
2022-08-19T10:10:57.000Z,52.70
2022-08-19T10:13:29.349Z,53.17
2022-08-19T10:15:58.131Z,56.33
2022-08-19T10:18:26.119Z,58.83
2022-08-19T10:20:54.461Z,52.60
2022-08-19T10:23:21.995Z,55.15
2022-08-19T10:25:50.497Z,44.20
2022-08-19T10:28:19.509Z,46.45
2022-08-19T10:30:47.219Z,43.72
2022-08-19T10:33:14.885Z,43.83
2022-08-19T10:35:42.525Z,48.70
2022-08-19T10:38:22.903Z,49.47
2022-08-19T10:40:59.024Z,49.35
2022-08-19T10:43:25.852Z,52.95
2022-08-19T10:46:00.225Z,48.83
2022-08-19T10:48:26.812Z,49.65
2022-08-19T10:51:12.403Z,51.65
2022-08-19T10:53:50.480Z,47.92
2022-08-19T10:56:36.367Z,50.80
2022-08-19T10:59:04.232Z,49.22
2022-08-19T11:01:34.003Z,49.00
2022-08-19T11:04:02.739Z,49.58
2022-08-19T11:06:30.240Z,49.28
2022-08-19T11:08:57.528Z,47.50
2022-08-19T11:11:24.059Z,49.15
2022-08-19T11:13:51.006Z,51.08
2022-08-19T11:16:23.216Z,50.47
2022-08-19T11:18:52.589Z,49.83
2022-08-19T11:21:28.553Z,45.88
2022-08-19T11:23:58.132Z,44.75
2022-08-19T11:26:25.888Z,44.15
2022-08-19T11:28:55.015Z,43.20
2022-08-19T11:31:24.880Z,43.60
2022-08-19T11:33:58.304Z,43.08
2022-08-19T11:36:24.852Z,44.47
2022-08-19T11:38:51.703Z,42.50
2022-08-19T11:41:20.341Z,44.22
2022-08-19T11:43:47.135Z,42.88
2022-08-19T11:46:16.354Z,40.70
2022-08-19T11:48:43.555Z,36.45
2022-08-19T11:51:13.909Z,40.28
2022-08-19T11:53:40.789Z,36.55
2022-08-19T11:56:08.585Z,33.97
2022-08-19T11:58:36.023Z,28.38
2022-08-19T12:01:05.948Z,29.10
2022-08-19T12:03:32.502Z,29.42
2022-08-19T12:05:59.069Z,31.75
2022-08-19T12:08:25.560Z,31.40
2022-08-19T12:10:52.062Z,31.95
2022-08-19T12:13:19.352Z,35.38
2022-08-19T12:15:48.417Z,31.73
2022-08-19T12:18:15.309Z,31.58
2022-08-19T12:20:43.392Z,33.03
2022-08-19T12:23:10.795Z,31.67
2022-08-19T12:25:38.694Z,32.25
2022-08-19T12:28:05.263Z,33.83
2022-08-19T12:30:31.830Z,33.63
2022-08-19T12:32:58.367Z,34.78
2022-08-19T12:35:24.874Z,33.05
2022-08-19T12:37:56.775Z,34.25
2022-08-19T12:40:26.527Z,34.97
2022-08-19T12:42:54.248Z,30.70
2022-08-19T12:45:20.915Z,33.33
2022-08-19T12:47:47.731Z,34.85
2022-08-19T12:50:16.490Z,33.78
2022-08-19T12:52:43.365Z,37.28
2022-08-19T12:55:11.996Z,35.25
2022-08-19T12:57:39.042Z,34.90
2022-08-19T13:00:14.605Z,32.70
2022-08-19T13:02:45.353Z,35.05
2022-08-19T13:05:16.847Z,34.13
2022-08-19T13:07:44.795Z,36.40
2022-08-19T13:10:16.240Z,34.50
2022-08-19T13:15:11.638Z,37.05
2022-08-19T13:17:39.551Z,41.00
2022-08-19T13:20:09.007Z,40.40
2022-08-19T13:22:36.895Z,37.40
2022-08-19T13:25:05.057Z,39.08
2022-08-19T13:27:31.659Z,39.67
2022-08-19T13:30:16.772Z,38.00
2022-08-19T13:33:01.819Z,41.30
2022-08-19T13:35:28.362Z,39.75
2022-08-19T13:37:54.978Z,38.83
2022-08-19T13:40:24.845Z,43.97
2022-08-19T13:42:55.423Z,41.17
2022-08-19T13:45:25.137Z,40.50
2022-08-19T13:47:59.160Z,41.85
2022-08-19T13:50:32.253Z,39.45
2022-08-19T13:52:59.420Z,41.00
2022-08-19T13:55:27.697Z,38.05
2022-08-19T13:57:57.407Z,37.90
2022-08-19T14:00:27.089Z,40.90
2022-08-19T14:02:56.696Z,36.65
2022-08-19T14:05:24.050Z,35.45
2022-08-19T14:07:50.633Z,34.83
2022-08-19T14:10:18.080Z,35.75
2022-08-19T14:12:44.643Z,32.25
2022-08-19T14:15:12.642Z,33.08
2022-08-19T14:17:40.776Z,29.38
2022-08-19T14:20:10.430Z,29.30
2022-08-19T14:22:40.565Z,27.98
2022-08-19T14:25:09.821Z,26.08
2022-08-19T14:27:38.065Z,23.95
2022-08-19T14:30:06.313Z,22.48
2022-08-19T14:32:32.850Z,21.83
2022-08-19T14:34:59.500Z,23.17
2022-08-19T14:37:26.248Z,20.52
2022-08-19T14:39:55.139Z,23.13
2022-08-19T14:42:21.727Z,20.42
2022-08-19T14:44:48.215Z,21.20
2022-08-19T14:47:15.043Z,20.70
2022-08-19T14:49:43.938Z,22.42
2022-08-19T14:52:14.897Z,21.85
2022-08-19T14:54:41.404Z,21.13
2022-08-19T14:57:08.184Z,20.42
2022-08-19T14:59:35.828Z,20.10
2022-08-19T15:02:33.433Z,20.33
2022-08-19T15:04:58.512Z,19.70
2022-08-19T15:07:28.290Z,18.70
2022-08-19T15:09:56.912Z,19.33
2022-08-19T15:12:23.472Z,19.33
2022-08-19T15:14:51.863Z,16.42
2022-08-19T15:17:21.819Z,20.05
2022-08-19T15:19:48.342Z,18.75
2022-08-19T15:22:15.155Z,19.15
2022-08-19T15:24:48.123Z,19.73
2022-08-19T15:27:14.821Z,17.80
2022-08-19T15:29:43.751Z,15.50
2022-08-19T15:32:10.287Z,15.02
2022-08-19T15:34:36.825Z,14.20
2022-08-19T15:37:06.100Z,11.55
2022-08-19T15:39:33.171Z,13.45
2022-08-19T15:42:00.628Z,15.60
2022-08-19T15:44:27.858Z,23.35
2022-08-19T15:46:54.437Z,21.65
2022-08-19T15:49:21.872Z,11.98
2022-08-19T15:51:51.905Z,13.90
2022-08-19T15:54:21.705Z,13.68
2022-08-19T15:57:07.935Z,14.15
2022-08-19T15:59:54.276Z,15.35
2022-08-19T16:02:42.300Z,16.42
2022-08-19T16:05:29.763Z,17.30
2022-08-19T16:07:56.963Z,16.77
2022-08-19T16:10:26.344Z,16.58
2022-08-19T16:12:55.352Z,17.83
2022-08-19T16:15:21.983Z,18.15
2022-08-19T16:17:55.418Z,17.50
2022-08-19T16:20:27.335Z,18.35
2022-08-19T16:22:54.345Z,17.48
2022-08-19T16:25:26.488Z,19.52
2022-08-19T16:28:06.226Z,17.17
2022-08-19T16:30:35.305Z,19.33
2022-08-19T16:33:01.806Z,17.85
2022-08-19T16:35:28.384Z,17.30
2022-08-19T16:37:55.003Z,18.42
2022-08-19T16:40:22.564Z,18.23
2022-08-19T16:42:49.477Z,18.55
2022-08-19T16:45:19.437Z,17.52
2022-08-19T16:47:45.967Z,20.08
2022-08-19T16:50:12.566Z,19.65
2022-08-19T16:52:39.065Z,19.98
2022-08-19T16:55:07.434Z,19.25
2022-08-19T16:57:35.550Z,20.88
2022-08-19T17:00:08.980Z,19.83
2022-08-19T17:02:36.688Z,19.40
2022-08-19T17:05:03.323Z,21.00
2022-08-19T17:07:33.103Z,19.80
2022-08-19T17:10:01.229Z,19.20
2022-08-19T17:12:32.200Z,18.75
2022-08-19T17:15:00.673Z,18.58
2022-08-19T17:17:29.363Z,18.70
2022-08-19T17:19:56.457Z,20.67
2022-08-19T17:22:23.741Z,19.10
2022-08-19T17:24:50.252Z,19.17
2022-08-19T17:27:16.763Z,20.23
2022-08-19T17:29:46.860Z,17.75
2022-08-19T17:32:13.886Z,18.10
2022-08-19T17:34:40.383Z,16.35
2022-08-19T17:37:06.890Z,17.02
2022-08-19T17:39:39.513Z,15.77
2022-08-19T17:42:06.756Z,15.57
2022-08-19T17:44:36.450Z,14.98
2022-08-19T17:47:04.156Z,14.80
2022-08-19T17:49:30.671Z,14.13
2022-08-19T17:52:00.471Z,14.43
2022-08-19T17:54:33.348Z,13.55
2022-08-19T17:57:01.245Z,13.90
2022-08-19T17:59:29.921Z,13.43
2022-08-19T18:01:57.169Z,13.60
2022-08-19T18:04:25.850Z,14.65
2022-08-19T18:06:55.019Z,14.57
2022-08-19T18:09:27.275Z,13.40
2022-08-19T18:11:56.852Z,13.45
2022-08-19T18:14:32.829Z,14.00
2022-08-19T18:17:05.864Z,13.43
2022-08-19T18:19:42.252Z,12.90
2022-08-19T18:22:11.589Z,12.98
2022-08-19T18:24:42.292Z,13.65
2022-08-19T18:27:09.836Z,13.45
2022-08-19T18:29:37.930Z,13.35
2022-08-19T18:32:04.674Z,12.55
2022-08-19T18:34:31.174Z,12.70
2022-08-19T18:36:57.683Z,12.77
2022-08-19T18:39:45.085Z,11.80
2022-08-19T18:42:37.012Z,11.80
2022-08-19T18:45:23.797Z,11.15
2022-08-19T18:48:26.933Z,12.05
2022-08-19T18:50:59.779Z,11.30
2022-08-19T18:53:28.679Z,11.00
2022-08-19T18:55:55.798Z,11.52
2022-08-19T18:58:26.634Z,10.82
2022-08-19T19:00:56.769Z,10.45
2022-08-19T19:03:24.345Z,11.57
2022-08-19T19:05:52.138Z,11.60
2022-08-19T19:08:18.765Z,11.50
2022-08-19T19:10:45.385Z,12.50
2022-08-19T19:13:16.319Z,11.23
2022-08-19T19:15:43.899Z,12.10
2022-08-19T19:18:13.451Z,11.65
2022-08-19T19:20:40.884Z,12.40
2022-08-19T19:23:07.635Z,12.15
2022-08-19T19:25:49.928Z,11.52
2022-08-19T19:28:17.423Z,12.38
2022-08-19T19:30:43.964Z,12.45
2022-08-19T19:33:10.812Z,12.00
2022-08-19T19:35:37.317Z,11.98
2022-08-19T19:38:03.874Z,12.52
2022-08-19T19:40:30.458Z,14.88
2022-08-19T19:42:57.077Z,11.88
2022-08-19T19:45:24.785Z,11.75
2022-08-19T19:47:51.322Z,11.75
2022-08-19T19:50:19.395Z,11.63
2022-08-19T19:52:46.622Z,12.48
2022-08-19T19:55:17.885Z,11.90
2022-08-19T19:57:48.871Z,12.45
2022-08-19T20:00:18.643Z,11.85
2022-08-19T20:02:49.612Z,11.60
2022-08-19T20:05:16.966Z,11.27
2022-08-19T20:08:02.023Z,12.25
2022-08-19T20:10:28.538Z,12.18
2022-08-19T20:12:56.684Z,12.07
2022-08-19T20:15:24.064Z,11.15
2022-08-19T20:17:51.025Z,11.63
2022-08-19T20:20:19.159Z,11.18
2022-08-19T20:22:47.496Z,11.57
2022-08-19T20:25:16.987Z,11.98
2022-08-19T20:27:44.050Z,11.77
2022-08-19T20:30:19.318Z,11.45
2022-08-19T20:32:47.620Z,10.73
2022-08-19T20:35:19.701Z,12.32
2022-08-19T20:37:46.558Z,11.63
2022-08-19T20:40:14.510Z,11.45
2022-08-19T20:42:43.213Z,11.10
2022-08-19T20:45:29.449Z,10.52
2022-08-19T20:48:02.653Z,11.95
2022-08-19T20:50:30.350Z,12.60
2022-08-19T20:52:57.821Z,12.02
2022-08-19T20:55:25.792Z,11.15
2022-08-19T20:57:52.299Z,11.23
2022-08-19T21:00:19.120Z,11.80
2022-08-19T21:02:46.796Z,11.23
2022-08-19T21:05:14.835Z,12.00
2022-08-19T21:07:41.547Z,11.38
2022-08-19T21:10:08.363Z,11.50
2022-08-19T21:12:35.008Z,11.48
2022-08-19T21:15:01.592Z,11.38
2022-08-19T21:17:28.092Z,11.23
2022-08-19T21:19:54.618Z,11.55
2022-08-19T21:22:21.196Z,11.52
2022-08-19T21:24:47.867Z,12.43
2022-08-19T21:27:14.367Z,13.35
2022-08-19T21:29:42.056Z,11.15
2022-08-19T21:32:11.112Z,12.32
2022-08-19T21:34:41.641Z,12.48
2022-08-19T21:37:14.002Z,11.95
2022-08-19T21:39:53.483Z,11.68
2022-08-19T21:42:20.920Z,11.48
2022-08-19T21:44:47.547Z,12.27
2022-08-19T21:47:14.052Z,11.43
2022-08-19T21:49:40.686Z,11.93
2022-08-19T21:52:08.152Z,12.80
2022-08-19T21:54:38.250Z,11.65
2022-08-19T21:57:10.263Z,11.83
2022-08-19T21:59:39.794Z,12.15
2022-08-19T22:02:19.565Z,12.55
2022-08-19T22:04:48.449Z,10.88
2022-08-19T22:07:15.499Z,11.90
2022-08-19T22:09:42.905Z,12.65
2022-08-19T22:12:20.909Z,11.65
2022-08-19T22:14:47.419Z,10.73
2022-08-19T22:17:14.584Z,10.30
2022-08-19T22:19:41.277Z,10.85
2022-08-19T22:22:08.165Z,12.38
2022-08-19T22:24:34.688Z,10.43
2022-08-19T22:27:02.311Z,11.25
2022-08-19T22:29:34.138Z,10.57
2022-08-19T22:32:01.504Z,10.57
2022-08-19T22:34:48.022Z,11.25
2022-08-19T22:37:14.525Z,10.88
2022-08-19T22:39:41.121Z,9.88
2022-08-19T22:42:07.726Z,10.32
2022-08-19T22:44:34.240Z,10.05
2022-08-19T22:47:02.165Z,9.98
2022-08-19T22:49:28.726Z,10.20
2022-08-19T22:52:13.772Z,10.82
2022-08-19T22:54:40.305Z,10.55
2022-08-19T22:57:06.807Z,10.52
2022-08-19T22:59:33.317Z,10.32
2022-08-19T23:01:59.842Z,10.13
2022-08-19T23:04:26.464Z,10.43
2022-08-19T23:06:53.275Z,10.18
2022-08-19T23:09:19.929Z,13.30
2022-08-19T23:11:50.065Z,12.05
2022-08-19T23:14:18.830Z,11.45
2022-08-19T23:16:50.756Z,11.70
2022-08-19T23:19:19.082Z,11.20
2022-08-19T23:21:45.583Z,10.98
2022-08-19T23:24:12.137Z,12.15
2022-08-19T23:26:59.366Z,10.68
2022-08-19T23:29:44.147Z,14.38
2022-08-19T23:32:10.653Z,12.50
2022-08-19T23:34:37.550Z,12.10
2022-08-19T23:37:04.100Z,12.10
2022-08-19T23:39:31.086Z,11.60
2022-08-19T23:41:57.571Z,12.80
2022-08-19T23:44:24.661Z,11.30
2022-08-19T23:46:55.114Z,13.20
2022-08-19T23:49:23.058Z,12.38
2022-08-19T23:51:49.620Z,12.90
2022-08-19T23:54:16.128Z,13.25
2022-08-19T23:56:42.677Z,13.52
2022-08-19T23:59:09.187Z,15.43
